createdAt,value
2022-08-27T00:00:54.699Z,152.30
2022-08-27T00:03:24.281Z,169.35
2022-08-27T00:05:53.743Z,194.70
2022-08-27T00:08:23.337Z,225.77
2022-08-27T00:10:52.815Z,212.00
2022-08-27T00:13:21.956Z,186.00
2022-08-27T00:15:51.064Z,153.60
2022-08-27T00:18:22.689Z,145.70
2022-08-27T00:20:52.797Z,148.27
2022-08-27T00:23:21.937Z,151.60
2022-08-27T00:25:50.933Z,145.88
2022-08-27T00:28:20.422Z,157.82
2022-08-27T00:30:49.555Z,148.48
2022-08-27T00:33:18.870Z,137.05
2022-08-27T00:35:47.979Z,141.35
2022-08-27T00:38:18.537Z,143.77
2022-08-27T00:40:48.304Z,144.30
2022-08-27T00:43:28.161Z,157.82
2022-08-27T00:46:08.470Z,140.00
2022-08-27T00:48:38.460Z,154.82
2022-08-27T00:51:08.143Z,153.85
2022-08-27T00:53:37.597Z,162.75
2022-08-27T00:56:16.948Z,161.85
2022-08-27T00:58:52.734Z,170.32
2022-08-27T01:01:30.459Z,154.93
2022-08-27T01:04:04.158Z,158.88
2022-08-27T01:06:37.957Z,176.48
2022-08-27T01:09:15.799Z,189.73
2022-08-27T01:11:46.594Z,188.35
2022-08-27T01:14:17.330Z,187.55
2022-08-27T01:16:52.276Z,190.93
2022-08-27T01:19:30.147Z,202.90
2022-08-27T01:22:08.836Z,210.85
2022-08-27T01:24:51.313Z,200.75
2022-08-27T01:27:26.260Z,177.82
2022-08-27T01:29:56.255Z,169.57
2022-08-27T01:32:30.123Z,162.73
2022-08-27T01:34:59.995Z,142.32
2022-08-27T01:37:30.590Z,146.13
2022-08-27T01:40:00.295Z,147.70
2022-08-27T01:42:33.644Z,113.03
2022-08-27T01:45:14.867Z,86.50
2022-08-27T01:47:44.779Z,83.05
2022-08-27T01:50:19.044Z,74.63
2022-08-27T01:52:48.698Z,72.05
2022-08-27T01:55:20.481Z,68.47
2022-08-27T01:57:49.879Z,50.08
2022-08-27T02:00:46.144Z,56.83
2022-08-27T02:03:19.556Z,51.17
2022-08-27T02:05:50.036Z,53.10
2022-08-27T02:08:20.850Z,61.38
2022-08-27T02:10:51.127Z,50.83
2022-08-27T02:13:20.550Z,54.40
2022-08-27T02:15:49.965Z,58.70
2022-08-27T02:18:19.602Z,51.90
2022-08-27T02:20:49.959Z,48.33
2022-08-27T02:23:19.810Z,48.10
2022-08-27T02:25:48.972Z,39.42
2022-08-27T02:30:50.859Z,38.53
2022-08-27T02:33:19.826Z,43.50
2022-08-27T02:35:48.991Z,41.20
2022-08-27T02:38:18.238Z,51.00
2022-08-27T02:40:47.360Z,44.20
2022-08-27T02:43:16.589Z,51.20
2022-08-27T02:45:54.856Z,34.67
2022-08-27T02:48:26.213Z,38.67
2022-08-27T02:50:56.167Z,33.80
2022-08-27T02:53:25.370Z,32.72
2022-08-27T02:55:54.561Z,36.22
2022-08-27T02:58:23.733Z,33.58
2022-08-27T03:00:52.820Z,34.70
2022-08-27T03:03:22.319Z,30.67
2022-08-27T03:05:51.671Z,33.60
2022-08-27T03:08:20.886Z,50.95
2022-08-27T03:10:50.127Z,52.78
2022-08-27T03:13:19.950Z,46.28
2022-08-27T03:15:49.835Z,37.75
2022-08-27T03:18:20.968Z,39.35
2022-08-27T03:20:58.044Z,37.78
2022-08-27T03:23:30.994Z,45.85
2022-08-27T03:26:03.162Z,54.30
2022-08-27T03:28:35.682Z,53.70
2022-08-27T03:31:10.401Z,55.17
2022-08-27T03:33:42.509Z,64.35
2022-08-27T03:36:12.349Z,64.50
2022-08-27T03:38:41.738Z,77.30
2022-08-27T03:41:11.080Z,82.82
2022-08-27T03:43:40.150Z,76.97
2022-08-27T03:46:10.177Z,70.80
2022-08-27T03:48:39.491Z,76.88
2022-08-27T03:51:11.840Z,68.53
2022-08-27T03:53:48.337Z,72.35
2022-08-27T03:56:17.617Z,67.80
2022-08-27T03:58:46.888Z,76.97
2022-08-27T04:01:16.591Z,85.80
2022-08-27T04:03:45.790Z,70.40
2022-08-27T04:06:14.745Z,64.47
2022-08-27T04:08:44.029Z,62.75
2022-08-27T04:11:13.475Z,71.88
2022-08-27T04:13:42.519Z,73.03
2022-08-27T04:16:12.654Z,60.38
2022-08-27T04:18:42.271Z,55.72
2022-08-27T04:21:14.352Z,45.88
2022-08-27T04:23:44.260Z,40.50
2022-08-27T04:26:16.751Z,45.53
2022-08-27T04:28:48.865Z,47.60
2022-08-27T04:31:19.003Z,51.28
2022-08-27T04:33:51.326Z,53.72
2022-08-27T04:38:51.128Z,59.03
2022-08-27T04:41:24.709Z,59.95
2022-08-27T04:43:57.567Z,54.22
2022-08-27T04:46:30.608Z,65.50
2022-08-27T04:49:01.216Z,68.95
2022-08-27T04:51:31.902Z,41.90
2022-08-27T04:54:03.545Z,34.78
2022-08-27T04:56:33.512Z,31.00
2022-08-27T04:59:05.191Z,36.05
2022-08-27T05:01:35.048Z,30.27
2022-08-27T05:04:04.871Z,30.67
2022-08-27T05:06:34.996Z,25.63
2022-08-27T05:09:05.196Z,24.48
2022-08-27T05:11:36.198Z,36.50
2022-08-27T05:14:07.719Z,49.53
2022-08-27T05:16:38.491Z,54.70
2022-08-27T05:19:16.387Z,42.50
2022-08-27T05:21:49.138Z,26.85
2022-08-27T05:24:20.056Z,30.60
2022-08-27T05:26:50.045Z,29.08
2022-08-27T05:29:19.733Z,40.45
2022-08-27T05:31:49.037Z,30.33
2022-08-27T05:34:22.075Z,32.42
2022-08-27T05:36:54.736Z,29.92
2022-08-27T05:39:24.014Z,29.15
2022-08-27T05:41:54.140Z,34.45
2022-08-27T05:44:41.413Z,33.40
2022-08-27T05:47:11.784Z,26.42
2022-08-27T05:49:41.024Z,24.85
2022-08-27T05:52:12.800Z,29.45
2022-08-27T05:54:44.981Z,36.85
2022-08-27T05:57:14.303Z,31.45
2022-08-27T06:00:01.628Z,31.90
2022-08-27T06:02:41.148Z,32.20
2022-08-27T06:05:10.423Z,27.25
2022-08-27T06:07:39.489Z,36.40
2022-08-27T06:10:10.033Z,33.10
2022-08-27T06:12:39.566Z,30.50
2022-08-27T06:15:09.616Z,40.38
2022-08-27T06:17:38.860Z,48.30
2022-08-27T06:20:08.432Z,26.58
2022-08-27T06:22:38.418Z,40.90
2022-08-27T06:25:08.396Z,37.85
2022-08-27T06:27:37.469Z,35.10
2022-08-27T06:30:07.104Z,40.92
2022-08-27T06:32:36.388Z,27.08
2022-08-27T06:35:05.952Z,32.10
2022-08-27T06:37:35.196Z,28.90
2022-08-27T06:40:04.594Z,32.72
2022-08-27T06:42:33.585Z,27.98
2022-08-27T06:45:04.377Z,39.75
2022-08-27T06:47:34.282Z,33.15
2022-08-27T06:50:04.179Z,29.15
2022-08-27T06:52:33.399Z,34.00
2022-08-27T06:55:02.355Z,38.33
2022-08-27T06:57:31.837Z,52.63
2022-08-27T07:00:01.450Z,41.28
2022-08-27T07:02:31.555Z,53.33
2022-08-27T07:05:01.387Z,48.83
2022-08-27T07:07:35.560Z,44.80
2022-08-27T07:10:06.855Z,49.88
2022-08-27T07:12:36.106Z,43.28
2022-08-27T07:15:06.409Z,47.58
2022-08-27T07:17:35.501Z,44.58
2022-08-27T07:20:07.054Z,52.47
2022-08-27T07:22:36.158Z,43.25
2022-08-27T07:25:05.449Z,59.58
2022-08-27T07:27:35.734Z,45.42
2022-08-27T07:30:07.418Z,30.02
2022-08-27T07:32:36.924Z,28.77
2022-08-27T07:35:10.543Z,26.85
2022-08-27T07:37:41.315Z,28.02
2022-08-27T07:40:17.210Z,36.70
2022-08-27T07:43:04.943Z,22.10
2022-08-27T07:45:34.091Z,25.33
2022-08-27T07:48:03.214Z,30.80
2022-08-27T07:50:35.133Z,37.17
2022-08-27T07:53:04.306Z,54.63
2022-08-27T07:55:33.672Z,34.40
2022-08-27T07:58:03.683Z,29.48
2022-08-27T08:00:35.521Z,28.42
2022-08-27T08:03:07.206Z,29.45
2022-08-27T08:05:36.565Z,21.15
2022-08-27T08:08:06.195Z,29.98
2022-08-27T08:10:38.448Z,33.78
2022-08-27T08:15:40.928Z,33.85
2022-08-27T08:18:10.902Z,36.42
2022-08-27T08:20:57.511Z,23.80
2022-08-27T08:23:29.508Z,30.63
2022-08-27T08:25:59.599Z,35.03
2022-08-27T08:28:31.435Z,44.03
2022-08-27T08:31:01.123Z,39.03
2022-08-27T08:33:32.653Z,37.10
2022-08-27T08:36:07.528Z,39.58
2022-08-27T08:38:37.345Z,29.50
2022-08-27T08:41:20.444Z,23.13
2022-08-27T08:43:53.415Z,29.15
2022-08-27T08:46:42.471Z,21.70
2022-08-27T08:49:33.714Z,17.38
2022-08-27T08:52:31.650Z,33.65
2022-08-27T08:55:15.049Z,26.83
2022-08-27T08:57:55.141Z,18.30
2022-08-27T09:00:25.485Z,26.60
2022-08-27T09:02:56.190Z,29.40
2022-08-27T09:05:27.715Z,24.25
2022-08-27T09:08:21.254Z,29.50
2022-08-27T09:10:58.938Z,23.63
2022-08-27T09:13:56.771Z,22.88
2022-08-27T09:16:26.150Z,31.05
2022-08-27T09:18:55.927Z,21.60
2022-08-27T09:22:07.637Z,28.13
2022-08-27T09:24:53.741Z,27.45
2022-08-27T09:27:27.420Z,34.00
2022-08-27T09:29:58.029Z,31.95
2022-08-27T09:32:35.199Z,28.25
2022-08-27T09:35:08.042Z,28.33
2022-08-27T09:37:53.128Z,38.97
2022-08-27T09:40:33.331Z,38.13
2022-08-27T09:43:18.654Z,37.30
2022-08-27T09:45:54.868Z,35.05
2022-08-27T09:48:31.575Z,49.05
2022-08-27T09:51:09.795Z,37.58
2022-08-27T09:54:07.657Z,42.20
2022-08-27T09:56:43.297Z,33.35
2022-08-27T09:59:23.325Z,35.65
2022-08-27T10:01:54.128Z,62.78
2022-08-27T10:04:50.353Z,48.63
2022-08-27T10:07:53.561Z,43.42
2022-08-27T10:10:54.789Z,34.58
2022-08-27T10:13:48.670Z,42.47
2022-08-27T10:16:56.117Z,53.20
2022-08-27T10:19:48.153Z,44.35
2022-08-27T10:22:29.163Z,53.85
2022-08-27T10:25:40.581Z,48.88
2022-08-27T10:28:15.510Z,42.90
2022-08-27T10:31:03.748Z,59.40
2022-08-27T10:33:47.695Z,62.25
2022-08-27T10:36:47.112Z,59.17
2022-08-27T10:39:22.651Z,45.38
2022-08-27T10:42:01.123Z,42.90
2022-08-27T10:44:54.094Z,47.75
2022-08-27T10:47:56.044Z,43.75
2022-08-27T10:51:03.890Z,51.25
2022-08-27T10:53:50.934Z,32.55
2022-08-27T10:56:41.850Z,29.10
2022-08-27T10:59:33.366Z,32.78
2022-08-27T11:02:12.081Z,46.00
2022-08-27T11:04:50.933Z,50.72
2022-08-27T11:07:27.262Z,31.65
2022-08-27T11:10:05.692Z,38.00
2022-08-27T11:12:43.758Z,26.02
2022-08-27T11:15:34.219Z,37.95
2022-08-27T11:18:28.410Z,87.10
2022-08-27T11:21:21.253Z,34.85
2022-08-27T11:23:57.374Z,28.58
2022-08-27T11:26:26.856Z,21.75
2022-08-27T11:29:24.772Z,29.30
2022-08-27T11:32:25.068Z,26.50
2022-08-27T11:35:02.205Z,69.57
2022-08-27T11:37:43.620Z,45.15
2022-08-27T11:40:29.800Z,31.83
2022-08-27T11:43:15.064Z,42.75
2022-08-27T11:45:59.323Z,34.17
2022-08-27T11:48:32.060Z,43.75
2022-08-27T11:51:08.052Z,43.67
2022-08-27T11:53:52.549Z,42.28
2022-08-27T11:56:31.268Z,48.70
2022-08-27T11:59:29.742Z,40.10
2022-08-27T12:02:13.718Z,53.35
2022-08-27T12:04:44.048Z,50.38
2022-08-27T12:07:18.593Z,55.33
2022-08-27T12:09:59.191Z,45.90
2022-08-27T12:12:46.200Z,40.22
2022-08-27T12:15:39.641Z,37.17
2022-08-27T12:18:11.684Z,29.23
2022-08-27T12:20:54.413Z,35.78
2022-08-27T12:23:48.054Z,49.42
2022-08-27T12:26:35.731Z,32.53
2022-08-27T12:29:27.787Z,31.75
2022-08-27T12:32:17.409Z,40.72
2022-08-27T12:34:57.786Z,27.83
2022-08-27T12:40:04.916Z,27.30
2022-08-27T12:42:34.317Z,38.30
2022-08-27T12:45:03.392Z,32.72
2022-08-27T12:47:42.866Z,40.40
2022-08-27T12:50:34.139Z,37.50
2022-08-27T12:53:32.227Z,34.50
2022-08-27T12:56:34.276Z,33.47
2022-08-27T12:59:55.467Z,66.45
2022-08-27T13:02:42.904Z,49.25
2022-08-27T13:05:13.397Z,43.28
2022-08-27T13:07:45.941Z,33.45
2022-08-27T13:10:34.592Z,35.53
2022-08-27T13:13:10.952Z,35.20
2022-08-27T13:15:50.409Z,35.47
2022-08-27T13:18:21.445Z,52.63
2022-08-27T13:21:01.547Z,56.78
2022-08-27T13:23:32.283Z,22.65
2022-08-27T13:26:13.123Z,41.85
2022-08-27T13:28:44.118Z,31.42
2022-08-27T13:31:14.025Z,103.80
2022-08-27T13:33:43.950Z,32.65
2022-08-27T13:36:13.564Z,28.73
2022-08-27T13:38:50.089Z,28.90
2022-08-27T13:41:24.235Z,24.20
2022-08-27T13:43:58.549Z,36.90
2022-08-27T13:46:32.583Z,22.23
2022-08-27T13:49:02.366Z,31.80
2022-08-27T13:51:35.843Z,22.92
2022-08-27T13:54:14.692Z,31.50
2022-08-27T13:56:50.373Z,35.08
2022-08-27T13:59:22.451Z,45.97
2022-08-27T14:02:13.417Z,38.05
2022-08-27T14:04:50.407Z,70.90
2022-08-27T14:07:24.875Z,23.92
2022-08-27T14:10:04.242Z,25.00
2022-08-27T14:12:39.973Z,42.20
2022-08-27T14:15:23.359Z,59.20
2022-08-27T14:17:53.309Z,28.33
2022-08-27T14:20:22.770Z,31.15
2022-08-27T14:22:52.221Z,20.88
2022-08-27T14:25:22.831Z,18.23
2022-08-27T14:27:54.758Z,40.10
2022-08-27T14:30:30.030Z,32.83
2022-08-27T14:33:03.604Z,24.88
2022-08-27T14:35:35.546Z,21.05
2022-08-27T14:38:19.720Z,30.77
2022-08-27T14:40:51.541Z,40.53
2022-08-27T14:43:21.512Z,28.80
2022-08-27T14:45:53.593Z,35.30
2022-08-27T14:48:34.661Z,25.35
2022-08-27T14:51:13.540Z,26.75
2022-08-27T14:53:42.772Z,39.38
2022-08-27T14:56:11.765Z,44.05
2022-08-27T14:58:41.111Z,30.17
2022-08-27T15:01:11.187Z,28.98
2022-08-27T15:03:45.651Z,24.33
2022-08-27T15:06:16.024Z,47.13
2022-08-27T15:08:46.200Z,33.00
2022-08-27T15:11:22.168Z,35.97
2022-08-27T15:13:53.854Z,30.77
2022-08-27T15:16:39.631Z,46.47
2022-08-27T15:19:12.030Z,23.92
2022-08-27T15:21:42.215Z,33.22
2022-08-27T15:24:25.767Z,34.78
2022-08-27T15:26:59.028Z,34.50
2022-08-27T15:29:29.103Z,29.13
2022-08-27T15:31:59.203Z,33.58
2022-08-27T15:34:28.284Z,25.08
2022-08-27T15:36:58.350Z,37.75
2022-08-27T15:39:27.461Z,22.92
2022-08-27T15:42:06.453Z,33.35
2022-08-27T15:44:37.896Z,38.50
2022-08-27T15:47:07.365Z,33.92
2022-08-27T15:49:36.324Z,46.63
2022-08-27T15:52:06.666Z,35.10
2022-08-27T15:54:35.999Z,31.83
2022-08-27T15:57:06.829Z,29.35
2022-08-27T15:59:36.517Z,31.45
2022-08-27T16:02:08.930Z,26.02
2022-08-27T16:04:38.006Z,30.75
2022-08-27T16:07:07.277Z,35.00
2022-08-27T16:09:36.581Z,22.70
2022-08-27T16:12:05.792Z,29.48
2022-08-27T16:14:35.346Z,28.25
2022-08-27T16:17:04.969Z,36.40
2022-08-27T16:19:39.432Z,39.35
2022-08-27T16:22:09.389Z,47.55
2022-08-27T16:24:38.464Z,48.28
2022-08-27T16:27:07.596Z,26.27
2022-08-27T16:29:36.753Z,42.55
2022-08-27T16:32:06.433Z,40.67
2022-08-27T16:34:37.617Z,26.70
2022-08-27T16:37:06.805Z,37.42
2022-08-27T16:39:40.092Z,67.68
2022-08-27T16:42:11.867Z,32.92
2022-08-27T16:44:41.348Z,37.38
2022-08-27T16:47:10.630Z,37.83
2022-08-27T16:50:02.534Z,33.58
2022-08-27T16:52:31.715Z,34.40
2022-08-27T16:55:01.493Z,32.17
2022-08-27T16:57:30.496Z,37.35
2022-08-27T16:59:59.599Z,42.38
2022-08-27T17:02:36.015Z,37.67
2022-08-27T17:05:30.761Z,39.05
2022-08-27T17:07:55.092Z,32.13
2022-08-27T17:10:24.375Z,23.80
2022-08-27T17:12:53.565Z,36.05
2022-08-27T17:15:23.151Z,26.98
2022-08-27T17:17:52.281Z,34.80
2022-08-27T17:20:21.256Z,35.70
2022-08-27T17:22:50.719Z,37.47
2022-08-27T17:25:20.050Z,41.15
2022-08-27T17:27:49.174Z,41.92
2022-08-27T17:30:22.085Z,33.88
2022-08-27T17:32:51.850Z,33.90
2022-08-27T17:35:21.136Z,31.55
2022-08-27T17:37:50.173Z,25.60
2022-08-27T17:40:19.337Z,32.85
2022-08-27T17:42:48.548Z,28.85
2022-08-27T17:45:18.466Z,47.97
2022-08-27T17:47:47.759Z,42.17
2022-08-27T17:50:17.311Z,39.40
2022-08-27T17:52:46.684Z,34.55
2022-08-27T17:55:16.313Z,35.75
2022-08-27T17:57:45.729Z,29.38
2022-08-27T18:00:16.116Z,40.63
2022-08-27T18:02:48.396Z,33.05
2022-08-27T18:05:20.094Z,32.38
2022-08-27T18:07:49.520Z,35.50
2022-08-27T18:10:24.112Z,36.83
2022-08-27T18:12:56.340Z,36.47
2022-08-27T18:15:35.077Z,43.50
2022-08-27T18:18:05.261Z,30.40
2022-08-27T18:20:36.922Z,33.03
2022-08-27T18:23:10.255Z,38.58
2022-08-27T18:25:40.976Z,31.88
2022-08-27T18:28:12.935Z,36.55
2022-08-27T18:30:45.008Z,42.03
2022-08-27T18:33:15.203Z,26.42
2022-08-27T18:35:45.304Z,36.45
2022-08-27T18:38:14.501Z,29.15
2022-08-27T18:40:47.546Z,59.75
2022-08-27T18:43:19.461Z,47.65
2022-08-27T18:45:49.332Z,34.63
2022-08-27T18:48:23.171Z,53.72
2022-08-27T18:50:59.825Z,28.75
2022-08-27T18:53:32.040Z,44.22
2022-08-27T18:58:31.492Z,26.27
2022-08-27T19:01:04.507Z,33.95
2022-08-27T19:03:43.266Z,38.58
2022-08-27T19:06:13.425Z,46.60
2022-08-27T19:08:43.345Z,47.95
2022-08-27T19:11:12.533Z,35.92
2022-08-27T19:13:42.918Z,31.88
2022-08-27T19:16:22.779Z,28.92
2022-08-27T19:18:52.987Z,34.72
2022-08-27T19:21:22.140Z,34.40
2022-08-27T19:23:53.687Z,44.65
2022-08-27T19:26:26.874Z,28.73
2022-08-27T19:28:55.970Z,35.05
2022-08-27T19:31:25.747Z,38.55
2022-08-27T19:33:55.441Z,30.27
2022-08-27T19:36:25.991Z,46.75
2022-08-27T19:38:57.904Z,40.58
2022-08-27T19:41:28.049Z,47.17
2022-08-27T19:43:57.809Z,34.33
2022-08-27T19:46:27.832Z,32.33
2022-08-27T19:48:58.797Z,46.08
2022-08-27T19:51:27.895Z,30.35
2022-08-27T19:53:56.757Z,32.83
2022-08-27T19:56:26.306Z,25.95
2022-08-27T19:58:58.122Z,39.42
2022-08-27T20:01:30.790Z,35.47
2022-08-27T20:03:59.882Z,37.35
2022-08-27T20:06:30.437Z,36.13
2022-08-27T20:09:06.566Z,33.47
2022-08-27T20:11:35.937Z,36.88
2022-08-27T20:14:05.023Z,31.33
2022-08-27T20:16:40.300Z,26.80
2022-08-27T20:19:10.269Z,37.83
2022-08-27T20:21:40.351Z,35.85
2022-08-27T20:24:10.091Z,30.95
2022-08-27T20:26:40.013Z,36.70
2022-08-27T20:29:10.125Z,25.85
2022-08-27T20:31:40.625Z,33.88
2022-08-27T20:34:10.009Z,38.50
2022-08-27T20:36:39.116Z,30.17
2022-08-27T20:39:08.727Z,45.35
2022-08-27T20:41:37.866Z,29.40
2022-08-27T20:44:09.592Z,42.97
2022-08-27T20:46:38.694Z,36.75
2022-08-27T20:49:08.919Z,32.78
2022-08-27T20:52:02.421Z,31.90
2022-08-27T20:54:27.714Z,33.65
2022-08-27T20:56:56.855Z,39.95
2022-08-27T20:59:44.395Z,35.00
2022-08-27T21:02:15.897Z,31.02
2022-08-27T21:04:48.005Z,41.65
2022-08-27T21:07:18.849Z,33.92
2022-08-27T21:12:28.356Z,31.58
2022-08-27T21:14:58.225Z,36.63
2022-08-27T21:17:28.927Z,36.17
2022-08-27T21:19:58.744Z,38.17
2022-08-27T21:22:28.563Z,28.67
2022-08-27T21:24:58.128Z,35.58
2022-08-27T21:27:27.352Z,52.20
2022-08-27T21:29:56.339Z,35.83
2022-08-27T21:32:25.480Z,37.58
2022-08-27T21:34:54.641Z,36.30
2022-08-27T21:37:23.604Z,34.42
2022-08-27T21:39:53.306Z,34.30
2022-08-27T21:42:23.197Z,45.80
2022-08-27T21:44:52.240Z,36.45
2022-08-27T21:47:22.035Z,37.92
2022-08-27T21:49:51.313Z,32.97
2022-08-27T21:52:20.891Z,34.35
2022-08-27T21:54:49.972Z,49.70
2022-08-27T21:57:18.942Z,49.95
2022-08-27T21:59:50.086Z,45.45
2022-08-27T22:02:39.351Z,38.13
2022-08-27T22:05:10.481Z,31.38
2022-08-27T22:07:39.544Z,31.05
2022-08-27T22:10:09.036Z,33.45
2022-08-27T22:12:38.278Z,32.25
2022-08-27T22:15:09.956Z,38.35
2022-08-27T22:17:39.105Z,35.25
2022-08-27T22:20:10.450Z,32.15
2022-08-27T22:22:40.667Z,36.35
2022-08-27T22:25:10.023Z,40.03
2022-08-27T22:27:39.517Z,38.80
2022-08-27T22:30:11.367Z,46.78
2022-08-27T22:35:11.307Z,43.30
2022-08-27T22:37:40.804Z,47.25
2022-08-27T22:40:19.977Z,39.20
2022-08-27T22:42:51.047Z,39.35
2022-08-27T22:45:21.779Z,44.78
2022-08-27T22:47:50.832Z,32.00
2022-08-27T22:50:20.043Z,38.55
2022-08-27T22:52:50.239Z,44.17
2022-08-27T22:55:22.966Z,46.53
2022-08-27T22:57:54.995Z,44.13
2022-08-27T23:00:28.980Z,49.88
2022-08-27T23:02:58.416Z,37.90
2022-08-27T23:05:28.485Z,37.88
2022-08-27T23:08:10.314Z,35.28
2022-08-27T23:10:40.049Z,29.90
2022-08-27T23:13:10.882Z,45.75
2022-08-27T23:15:40.215Z,40.10
2022-08-27T23:18:09.305Z,37.90
2022-08-27T23:20:39.200Z,32.88
2022-08-27T23:23:09.029Z,41.78
2022-08-27T23:25:56.492Z,40.78
2022-08-27T23:28:25.813Z,36.03
2022-08-27T23:30:55.988Z,37.15
2022-08-27T23:33:25.173Z,36.15
2022-08-27T23:35:54.207Z,46.55
2022-08-27T23:38:23.732Z,42.47
2022-08-27T23:40:53.360Z,45.63
2022-08-27T23:43:22.670Z,36.30
2022-08-27T23:45:53.045Z,45.95
2022-08-27T23:48:22.275Z,48.22
2022-08-27T23:50:51.532Z,42.92
2022-08-27T23:53:20.463Z,37.00
2022-08-27T23:55:49.542Z,41.97
2022-08-27T23:58:18.807Z,40.22
